sensor_id;sensor_type;location;lat;lon;timestamp;P1;durP1;ratioP1;P2;durP2;ratioP2
23140;SDS011;11739;54.750;9.124;2022-10-19T00:00:30;10.05;;;2.65;;
23140;SDS011;11739;54.750;9.124;2022-10-19T00:02:57;13.18;;;2.80;;
23140;SDS011;11739;54.750;9.124;2022-10-19T00:05:26;8.60;;;2.22;;
23140;SDS011;11739;54.750;9.124;2022-10-19T00:07:53;9.27;;;2.53;;
23140;SDS011;11739;54.750;9.124;2022-10-19T00:10:20;10.70;;;2.50;;
23140;SDS011;11739;54.750;9.124;2022-10-19T00:12:47;9.57;;;2.60;;
23140;SDS011;11739;54.750;9.124;2022-10-19T00:15:13;8.35;;;2.80;;
23140;SDS011;11739;54.750;9.124;2022-10-19T00:17:40;10.32;;;2.45;;
23140;SDS011;11739;54.750;9.124;2022-10-19T00:20:08;8.07;;;2.25;;
23140;SDS011;11739;54.750;9.124;2022-10-19T00:22:35;9.40;;;2.50;;
23140;SDS011;11739;54.750;9.124;2022-10-19T00:25:02;9.23;;;2.35;;
23140;SDS011;11739;54.750;9.124;2022-10-19T00:27:29;10.90;;;2.63;;
23140;SDS011;11739;54.750;9.124;2022-10-19T00:29:55;12.07;;;2.22;;
23140;SDS011;11739;54.750;9.124;2022-10-19T00:32:22;12.45;;;2.72;;
23140;SDS011;11739;54.750;9.124;2022-10-19T00:34:48;10.60;;;2.85;;
23140;SDS011;11739;54.750;9.124;2022-10-19T00:37:15;12.02;;;2.55;;
23140;SDS011;11739;54.750;9.124;2022-10-19T00:39:41;11.70;;;3.08;;
23140;SDS011;11739;54.750;9.124;2022-10-19T00:42:11;14.25;;;2.58;;
23140;SDS011;11739;54.750;9.124;2022-10-19T00:47:05;10.93;;;2.70;;
23140;SDS011;11739;54.750;9.124;2022-10-19T00:49:39;8.07;;;2.47;;
23140;SDS011;11739;54.750;9.124;2022-10-19T00:52:09;11.73;;;2.50;;
23140;SDS011;11739;54.750;9.124;2022-10-19T00:54:38;7.55;;;2.55;;
23140;SDS011;11739;54.750;9.124;2022-10-19T00:57:06;9.73;;;2.70;;
23140;SDS011;11739;54.750;9.124;2022-10-19T00:59:33;9.45;;;2.65;;
23140;SDS011;11739;54.750;9.124;2022-10-19T01:02:00;14.00;;;2.83;;
23140;SDS011;11739;54.750;9.124;2022-10-19T01:04:28;11.18;;;2.47;;
23140;SDS011;11739;54.750;9.124;2022-10-19T01:06:56;8.73;;;2.22;;
23140;SDS011;11739;54.750;9.124;2022-10-19T01:09:22;9.70;;;2.42;;
23140;SDS011;11739;54.750;9.124;2022-10-19T01:15:11;10.95;;;2.40;;
23140;SDS011;11739;54.750;9.124;2022-10-19T01:17:55;7.28;;;2.15;;
23140;SDS011;11739;54.750;9.124;2022-10-19T01:31:36;7.43;;;2.33;;
23140;SDS011;11739;54.750;9.124;2022-10-19T01:36:48;7.78;;;2.22;;
23140;SDS011;11739;54.750;9.124;2022-10-19T01:39:25;11.65;;;2.63;;
23140;SDS011;11739;54.750;9.124;2022-10-19T01:45:03;5.90;;;2.38;;
23140;SDS011;11739;54.750;9.124;2022-10-19T01:52:57;6.45;;;2.00;;
23140;SDS011;11739;54.750;9.124;2022-10-19T01:55:24;9.00;;;2.13;;
23140;SDS011;11739;54.750;9.124;2022-10-19T01:58:01;8.75;;;1.63;;
23140;SDS011;11739;54.750;9.124;2022-10-19T02:00:34;11.20;;;2.20;;
23140;SDS011;11739;54.750;9.124;2022-10-19T02:03:03;9.85;;;2.22;;
23140;SDS011;11739;54.750;9.124;2022-10-19T02:05:30;6.25;;;1.90;;
23140;SDS011;11739;54.750;9.124;2022-10-19T02:07:59;6.53;;;2.03;;
23140;SDS011;11739;54.750;9.124;2022-10-19T02:10:28;6.43;;;2.10;;
23140;SDS011;11739;54.750;9.124;2022-10-19T02:12:56;6.90;;;2.60;;
23140;SDS011;11739;54.750;9.124;2022-10-19T02:15:24;7.70;;;2.50;;
23140;SDS011;11739;54.750;9.124;2022-10-19T02:17:52;7.45;;;2.13;;
23140;SDS011;11739;54.750;9.124;2022-10-19T02:20:22;8.60;;;2.25;;
23140;SDS011;11739;54.750;9.124;2022-10-19T02:22:49;4.90;;;1.73;;
23140;SDS011;11739;54.750;9.124;2022-10-19T02:25:16;8.43;;;2.28;;
23140;SDS011;11739;54.750;9.124;2022-10-19T02:27:42;9.10;;;2.25;;
23140;SDS011;11739;54.750;9.124;2022-10-19T02:30:13;6.63;;;2.28;;
23140;SDS011;11739;54.750;9.124;2022-10-19T02:32:42;8.18;;;2.50;;
23140;SDS011;11739;54.750;9.124;2022-10-19T02:35:09;8.68;;;2.13;;
23140;SDS011;11739;54.750;9.124;2022-10-19T02:37:37;9.63;;;2.00;;
23140;SDS011;11739;54.750;9.124;2022-10-19T02:40:05;5.97;;;1.88;;
23140;SDS011;11739;54.750;9.124;2022-10-19T02:42:34;11.30;;;2.45;;
23140;SDS011;11739;54.750;9.124;2022-10-19T02:45:08;5.20;;;1.60;;
23140;SDS011;11739;54.750;9.124;2022-10-19T02:47:43;7.60;;;2.03;;
23140;SDS011;11739;54.750;9.124;2022-10-19T02:50:13;8.23;;;1.77;;
23140;SDS011;11739;54.750;9.124;2022-10-19T02:52:40;5.88;;;1.85;;
23140;SDS011;11739;54.750;9.124;2022-10-19T02:55:07;6.68;;;2.28;;
23140;SDS011;11739;54.750;9.124;2022-10-19T02:57:34;9.38;;;2.30;;
23140;SDS011;11739;54.750;9.124;2022-10-19T03:00:02;8.88;;;2.38;;
23140;SDS011;11739;54.750;9.124;2022-10-19T03:02:30;7.15;;;2.20;;
23140;SDS011;11739;54.750;9.124;2022-10-19T03:04:57;9.40;;;2.22;;
23140;SDS011;11739;54.750;9.124;2022-10-19T03:07:23;8.30;;;1.80;;
23140;SDS011;11739;54.750;9.124;2022-10-19T03:09:50;5.57;;;1.80;;
23140;SDS011;11739;54.750;9.124;2022-10-19T03:12:16;9.60;;;2.15;;
23140;SDS011;11739;54.750;9.124;2022-10-19T03:14:43;3.65;;;1.63;;
23140;SDS011;11739;54.750;9.124;2022-10-19T03:17:10;7.10;;;1.83;;
23140;SDS011;11739;54.750;9.124;2022-10-19T03:19:36;8.15;;;1.80;;
23140;SDS011;11739;54.750;9.124;2022-10-19T03:22:03;5.88;;;1.75;;
23140;SDS011;11739;54.750;9.124;2022-10-19T03:24:31;9.60;;;2.08;;
23140;SDS011;11739;54.750;9.124;2022-10-19T03:26:58;10.57;;;2.63;;
23140;SDS011;11739;54.750;9.124;2022-10-19T03:29:24;5.13;;;1.98;;
23140;SDS011;11739;54.750;9.124;2022-10-19T03:31:51;4.70;;;1.50;;
23140;SDS011;11739;54.750;9.124;2022-10-19T03:34:17;5.78;;;1.50;;
23140;SDS011;11739;54.750;9.124;2022-10-19T03:36:44;5.72;;;1.83;;
23140;SDS011;11739;54.750;9.124;2022-10-19T03:39:11;7.57;;;1.92;;
23140;SDS011;11739;54.750;9.124;2022-10-19T03:41:38;7.97;;;2.05;;
23140;SDS011;11739;54.750;9.124;2022-10-19T03:44:06;9.35;;;2.00;;
23140;SDS011;11739;54.750;9.124;2022-10-19T03:46:33;6.22;;;1.90;;
23140;SDS011;11739;54.750;9.124;2022-10-19T03:49:00;7.28;;;2.25;;
23140;SDS011;11739;54.750;9.124;2022-10-19T03:51:27;9.10;;;2.17;;
23140;SDS011;11739;54.750;9.124;2022-10-19T03:53:59;7.20;;;1.85;;
23140;SDS011;11739;54.750;9.124;2022-10-19T03:56:28;7.32;;;1.63;;
23140;SDS011;11739;54.750;9.124;2022-10-19T03:58:56;5.80;;;1.48;;
23140;SDS011;11739;54.750;9.124;2022-10-19T04:01:24;5.28;;;1.73;;
23140;SDS011;11739;54.750;9.124;2022-10-19T04:03:56;5.43;;;1.60;;
23140;SDS011;11739;54.750;9.124;2022-10-19T04:06:25;5.75;;;2.25;;
23140;SDS011;11739;54.750;9.124;2022-10-19T04:08:52;7.68;;;2.10;;
23140;SDS011;11739;54.750;9.124;2022-10-19T04:11:20;6.47;;;2.10;;
23140;SDS011;11739;54.750;9.124;2022-10-19T04:13:49;8.02;;;2.28;;
23140;SDS011;11739;54.750;9.124;2022-10-19T04:16:16;6.90;;;1.75;;
23140;SDS011;11739;54.750;9.124;2022-10-19T04:18:43;9.30;;;2.40;;
23140;SDS011;11739;54.750;9.124;2022-10-19T04:23:50;10.73;;;2.28;;
23140;SDS011;11739;54.750;9.124;2022-10-19T04:26:17;13.07;;;2.40;;
23140;SDS011;11739;54.750;9.124;2022-10-19T04:28:44;7.22;;;2.03;;
23140;SDS011;11739;54.750;9.124;2022-10-19T04:31:11;5.15;;;1.98;;
23140;SDS011;11739;54.750;9.124;2022-10-19T04:33:38;6.32;;;1.63;;
23140;SDS011;11739;54.750;9.124;2022-10-19T04:36:05;9.13;;;2.45;;
23140;SDS011;11739;54.750;9.124;2022-10-19T04:38:34;7.30;;;2.20;;
23140;SDS011;11739;54.750;9.124;2022-10-19T04:41:01;4.28;;;0.70;;
23140;SDS011;11739;54.750;9.124;2022-10-19T04:43:31;8.57;;;1.63;;
23140;SDS011;11739;54.750;9.124;2022-10-19T04:46:05;13.68;;;1.15;;
23140;SDS011;11739;54.750;9.124;2022-10-19T04:48:35;2.05;;;0.85;;
23140;SDS011;11739;54.750;9.124;2022-10-19T04:51:03;3.65;;;1.20;;
23140;SDS011;11739;54.750;9.124;2022-10-19T04:53:30;7.10;;;1.80;;
23140;SDS011;11739;54.750;9.124;2022-10-19T04:55:57;3.72;;;1.48;;
23140;SDS011;11739;54.750;9.124;2022-10-19T04:58:23;8.25;;;1.95;;
23140;SDS011;11739;54.750;9.124;2022-10-19T05:00:50;6.35;;;2.00;;
23140;SDS011;11739;54.750;9.124;2022-10-19T05:03:17;6.28;;;2.25;;
23140;SDS011;11739;54.750;9.124;2022-10-19T05:05:43;7.07;;;1.90;;
23140;SDS011;11739;54.750;9.124;2022-10-19T05:08:10;6.70;;;1.90;;
23140;SDS011;11739;54.750;9.124;2022-10-19T05:10:36;9.27;;;2.22;;
23140;SDS011;11739;54.750;9.124;2022-10-19T05:13:03;4.68;;;1.90;;
23140;SDS011;11739;54.750;9.124;2022-10-19T05:15:30;5.15;;;2.00;;
23140;SDS011;11739;54.750;9.124;2022-10-19T05:17:56;5.40;;;2.30;;
23140;SDS011;11739;54.750;9.124;2022-10-19T05:20:23;4.68;;;2.00;;
23140;SDS011;11739;54.750;9.124;2022-10-19T05:22:50;4.43;;;1.92;;
23140;SDS011;11739;54.750;9.124;2022-10-19T05:25:16;3.35;;;1.85;;
23140;SDS011;11739;54.750;9.124;2022-10-19T05:27:43;4.22;;;2.10;;
23140;SDS011;11739;54.750;9.124;2022-10-19T05:30:10;3.67;;;1.55;;
23140;SDS011;11739;54.750;9.124;2022-10-19T05:32:36;2.58;;;1.45;;
23140;SDS011;11739;54.750;9.124;2022-10-19T05:35:03;1.75;;;1.15;;
23140;SDS011;11739;54.750;9.124;2022-10-19T05:37:29;1.60;;;1.10;;
23140;SDS011;11739;54.750;9.124;2022-10-19T05:39:56;2.95;;;1.40;;
23140;SDS011;11739;54.750;9.124;2022-10-19T05:42:23;3.20;;;1.48;;
23140;SDS011;11739;54.750;9.124;2022-10-19T05:44:49;3.78;;;1.50;;
23140;SDS011;11739;54.750;9.124;2022-10-19T05:47:16;2.20;;;1.30;;
23140;SDS011;11739;54.750;9.124;2022-10-19T05:49:43;1.50;;;1.17;;
23140;SDS011;11739;54.750;9.124;2022-10-19T05:52:09;2.05;;;1.10;;
23140;SDS011;11739;54.750;9.124;2022-10-19T05:54:36;1.80;;;1.10;;
23140;SDS011;11739;54.750;9.124;2022-10-19T05:57:02;1.38;;;1.08;;
23140;SDS011;11739;54.750;9.124;2022-10-19T05:59:29;1.60;;;1.50;;
23140;SDS011;11739;54.750;9.124;2022-10-19T06:01:56;2.05;;;1.52;;
23140;SDS011;11739;54.750;9.124;2022-10-19T06:04:22;2.95;;;1.50;;
23140;SDS011;11739;54.750;9.124;2022-10-19T06:06:49;2.30;;;1.20;;
23140;SDS011;11739;54.750;9.124;2022-10-19T06:09:15;1.85;;;1.10;;
23140;SDS011;11739;54.750;9.124;2022-10-19T06:11:42;1.13;;;1.10;;
23140;SDS011;11739;54.750;9.124;2022-10-19T06:14:13;1.65;;;1.20;;
23140;SDS011;11739;54.750;9.124;2022-10-19T06:16:40;6.80;;;5.05;;
23140;SDS011;11739;54.750;9.124;2022-10-19T06:19:07;3.88;;;2.65;;
23140;SDS011;11739;54.750;9.124;2022-10-19T06:21:34;3.40;;;1.50;;
23140;SDS011;11739;54.750;9.124;2022-10-19T06:24:02;1.95;;;1.40;;
23140;SDS011;11739;54.750;9.124;2022-10-19T06:26:30;3.08;;;1.45;;
23140;SDS011;11739;54.750;9.124;2022-10-19T06:28:58;1.40;;;1.30;;
23140;SDS011;11739;54.750;9.124;2022-10-19T06:31:26;16.13;;;1.60;;
23140;SDS011;11739;54.750;9.124;2022-10-19T06:33:56;2.13;;;0.65;;
23140;SDS011;11739;54.750;9.124;2022-10-19T06:36:24;0.63;;;0.60;;
23140;SDS011;11739;54.750;9.124;2022-10-19T06:38:53;0.63;;;0.63;;
23140;SDS011;11739;54.750;9.124;2022-10-19T06:41:21;1.20;;;0.88;;
23140;SDS011;11739;54.750;9.124;2022-10-19T06:43:49;0.88;;;0.88;;
23140;SDS011;11739;54.750;9.124;2022-10-19T06:46:16;4.60;;;1.08;;
23140;SDS011;11739;54.750;9.124;2022-10-19T06:48:52;3.00;;;1.23;;
23140;SDS011;11739;54.750;9.124;2022-10-19T06:51:20;32.75;;;3.38;;
23140;SDS011;11739;54.750;9.124;2022-10-19T06:53:48;10.82;;;1.70;;
23140;SDS011;11739;54.750;9.124;2022-10-19T06:56:20;6.78;;;2.17;;
23140;SDS011;11739;54.750;9.124;2022-10-19T06:58:49;5.43;;;1.70;;
23140;SDS011;11739;54.750;9.124;2022-10-19T07:01:16;11.05;;;2.17;;
23140;SDS011;11739;54.750;9.124;2022-10-19T07:03:43;5.53;;;1.50;;
23140;SDS011;11739;54.750;9.124;2022-10-19T07:06:11;5.57;;;1.70;;
23140;SDS011;11739;54.750;9.124;2022-10-19T07:08:38;3.08;;;1.50;;
23140;SDS011;11739;54.750;9.124;2022-10-19T07:11:07;4.30;;;1.65;;
23140;SDS011;11739;54.750;9.124;2022-10-19T07:13:35;6.70;;;1.70;;
23140;SDS011;11739;54.750;9.124;2022-10-19T07:16:06;4.65;;;2.20;;
23140;SDS011;11739;54.750;9.124;2022-10-19T07:18:45;2.88;;;1.83;;
23140;SDS011;11739;54.750;9.124;2022-10-19T07:21:12;4.20;;;2.10;;
23140;SDS011;11739;54.750;9.124;2022-10-19T07:23:40;4.80;;;1.80;;
23140;SDS011;11739;54.750;9.124;2022-10-19T07:26:10;4.97;;;1.67;;
23140;SDS011;11739;54.750;9.124;2022-10-19T07:28:44;5.15;;;1.90;;
23140;SDS011;11739;54.750;9.124;2022-10-19T07:31:13;4.13;;;1.92;;
23140;SDS011;11739;54.750;9.124;2022-10-19T07:33:43;2.80;;;1.67;;
23140;SDS011;11739;54.750;9.124;2022-10-19T07:36:10;3.03;;;1.70;;
23140;SDS011;11739;54.750;9.124;2022-10-19T07:38:38;5.47;;;2.05;;
23140;SDS011;11739;54.750;9.124;2022-10-19T07:41:09;3.08;;;1.80;;
23140;SDS011;11739;54.750;9.124;2022-10-19T07:43:40;5.22;;;1.92;;
23140;SDS011;11739;54.750;9.124;2022-10-19T07:46:08;7.85;;;1.98;;
23140;SDS011;11739;54.750;9.124;2022-10-19T07:48:36;3.53;;;2.03;;
23140;SDS011;11739;54.750;9.124;2022-10-19T07:51:05;7.30;;;1.98;;
23140;SDS011;11739;54.750;9.124;2022-10-19T07:53:32;6.05;;;2.28;;
23140;SDS011;11739;54.750;9.124;2022-10-19T07:56:06;4.15;;;1.98;;
23140;SDS011;11739;54.750;9.124;2022-10-19T07:58:35;3.95;;;2.03;;
23140;SDS011;11739;54.750;9.124;2022-10-19T08:01:07;3.95;;;1.88;;
23140;SDS011;11739;54.750;9.124;2022-10-19T08:03:38;5.57;;;2.35;;
23140;SDS011;11739;54.750;9.124;2022-10-19T08:06:24;6.85;;;2.58;;
23140;SDS011;11739;54.750;9.124;2022-10-19T08:08:51;2.83;;;1.70;;
23140;SDS011;11739;54.750;9.124;2022-10-19T08:11:20;7.03;;;2.45;;
23140;SDS011;11739;54.750;9.124;2022-10-19T08:13:48;6.75;;;2.40;;
23140;SDS011;11739;54.750;9.124;2022-10-19T08:16:23;6.93;;;3.30;;
23140;SDS011;11739;54.750;9.124;2022-10-19T08:19:03;9.00;;;3.45;;
23140;SDS011;11739;54.750;9.124;2022-10-19T08:21:32;7.13;;;2.95;;
23140;SDS011;11739;54.750;9.124;2022-10-19T08:23:59;5.95;;;2.83;;
23140;SDS011;11739;54.750;9.124;2022-10-19T08:26:30;6.15;;;2.47;;
23140;SDS011;11739;54.750;9.124;2022-10-19T08:28:58;3.97;;;2.03;;
23140;SDS011;11739;54.750;9.124;2022-10-19T08:31:27;7.70;;;2.88;;
23140;SDS011;11739;54.750;9.124;2022-10-19T08:33:54;5.30;;;1.90;;
23140;SDS011;11739;54.750;9.124;2022-10-19T08:36:21;4.03;;;2.35;;
23140;SDS011;11739;54.750;9.124;2022-10-19T08:38:48;5.95;;;2.25;;
23140;SDS011;11739;54.750;9.124;2022-10-19T08:41:18;6.72;;;2.35;;
23140;SDS011;11739;54.750;9.124;2022-10-19T08:43:54;6.28;;;2.03;;
23140;SDS011;11739;54.750;9.124;2022-10-19T08:46:34;4.18;;;2.08;;
23140;SDS011;11739;54.750;9.124;2022-10-19T08:49:09;3.00;;;1.90;;
23140;SDS011;11739;54.750;9.124;2022-10-19T08:51:39;5.28;;;1.80;;
23140;SDS011;11739;54.750;9.124;2022-10-19T08:54:07;7.18;;;2.10;;
23140;SDS011;11739;54.750;9.124;2022-10-19T08:56:43;3.45;;;1.67;;
23140;SDS011;11739;54.750;9.124;2022-10-19T09:01:53;7.53;;;2.47;;
23140;SDS011;11739;54.750;9.124;2022-10-19T09:09:44;3.35;;;2.20;;
23140;SDS011;11739;54.750;9.124;2022-10-19T09:12:17;4.75;;;2.20;;
23140;SDS011;11739;54.750;9.124;2022-10-19T09:14:50;3.55;;;2.05;;
23140;SDS011;11739;54.750;9.124;2022-10-19T09:17:20;6.00;;;2.38;;
23140;SDS011;11739;54.750;9.124;2022-10-19T09:19:47;3.08;;;2.15;;
23140;SDS011;11739;54.750;9.124;2022-10-19T09:22:20;6.57;;;2.17;;
23140;SDS011;11739;54.750;9.124;2022-10-19T09:24:52;4.43;;;2.22;;
23140;SDS011;11739;54.750;9.124;2022-10-19T09:27:25;4.63;;;2.00;;
23140;SDS011;11739;54.750;9.124;2022-10-19T09:29:58;5.30;;;1.88;;
23140;SDS011;11739;54.750;9.124;2022-10-19T09:32:30;2.70;;;1.15;;
23140;SDS011;11739;54.750;9.124;2022-10-19T09:35:02;1.77;;;0.93;;
23140;SDS011;11739;54.750;9.124;2022-10-19T09:37:43;2.22;;;1.25;;
23140;SDS011;11739;54.750;9.124;2022-10-19T09:40:21;1.90;;;1.17;;
23140;SDS011;11739;54.750;9.124;2022-10-19T09:42:52;2.85;;;1.27;;
23140;SDS011;11739;54.750;9.124;2022-10-19T09:45:39;3.25;;;1.40;;
23140;SDS011;11739;54.750;9.124;2022-10-19T09:48:28;2.33;;;1.00;;
23140;SDS011;11739;54.750;9.124;2022-10-19T09:51:01;1.52;;;0.82;;
23140;SDS011;11739;54.750;9.124;2022-10-19T09:53:29;3.13;;;1.08;;
23140;SDS011;11739;54.750;9.124;2022-10-19T09:56:00;3.05;;;1.10;;
23140;SDS011;11739;54.750;9.124;2022-10-19T09:58:29;1.65;;;0.90;;
23140;SDS011;11739;54.750;9.124;2022-10-19T10:00:58;2.63;;;0.90;;
23140;SDS011;11739;54.750;9.124;2022-10-19T10:03:29;2.33;;;0.98;;
23140;SDS011;11739;54.750;9.124;2022-10-19T10:06:06;1.00;;;0.90;;
23140;SDS011;11739;54.750;9.124;2022-10-19T10:08:36;2.03;;;0.80;;
23140;SDS011;11739;54.750;9.124;2022-10-19T10:13:36;0.75;;;0.75;;
23140;SDS011;11739;54.750;9.124;2022-10-19T10:16:05;1.30;;;0.80;;
23140;SDS011;11739;54.750;9.124;2022-10-19T10:18:48;1.45;;;0.80;;
23140;SDS011;11739;54.750;9.124;2022-10-19T10:21:28;0.70;;;0.52;;
23140;SDS011;11739;54.750;9.124;2022-10-19T10:26:39;1.75;;;0.70;;
23140;SDS011;11739;54.750;9.124;2022-10-19T10:29:24;1.48;;;0.77;;
23140;SDS011;11739;54.750;9.124;2022-10-19T10:31:59;2.78;;;1.00;;
23140;SDS011;11739;54.750;9.124;2022-10-19T10:34:32;1.10;;;0.70;;
23140;SDS011;11739;54.750;9.124;2022-10-19T10:42:50;3.05;;;0.90;;
23140;SDS011;11739;54.750;9.124;2022-10-19T10:45:23;1.13;;;0.50;;
23140;SDS011;11739;54.750;9.124;2022-10-19T10:47:51;0.80;;;0.65;;
23140;SDS011;11739;54.750;9.124;2022-10-19T10:50:19;1.90;;;0.70;;
23140;SDS011;11739;54.750;9.124;2022-10-19T10:52:58;3.38;;;0.60;;
23140;SDS011;11739;54.750;9.124;2022-10-19T10:55:26;1.75;;;0.60;;
23140;SDS011;11739;54.750;9.124;2022-10-19T10:57:59;2.55;;;0.98;;
23140;SDS011;11739;54.750;9.124;2022-10-19T11:00:34;0.93;;;0.70;;
23140;SDS011;11739;54.750;9.124;2022-10-19T11:03:21;2.38;;;0.95;;
23140;SDS011;11739;54.750;9.124;2022-10-19T11:05:52;4.30;;;0.70;;
23140;SDS011;11739;54.750;9.124;2022-10-19T11:11:10;1.48;;;0.80;;
23140;SDS011;11739;54.750;9.124;2022-10-19T11:16:32;1.73;;;0.50;;
23140;SDS011;11739;54.750;9.124;2022-10-19T11:19:09;1.95;;;0.63;;
23140;SDS011;11739;54.750;9.124;2022-10-19T11:21:45;0.40;;;0.40;;
23140;SDS011;11739;54.750;9.124;2022-10-19T11:24:17;1.88;;;0.30;;
23140;SDS011;11739;54.750;9.124;2022-10-19T11:27:20;0.73;;;0.45;;
23140;SDS011;11739;54.750;9.124;2022-10-19T11:47:13;1.98;;;0.55;;
23140;SDS011;11739;54.750;9.124;2022-10-19T11:53:04;0.68;;;0.55;;
23140;SDS011;11739;54.750;9.124;2022-10-19T11:55:44;1.15;;;0.50;;
23140;SDS011;11739;54.750;9.124;2022-10-19T12:07:26;0.50;;;0.40;;
23140;SDS011;11739;54.750;9.124;2022-10-19T12:10:02;4.43;;;0.90;;
23140;SDS011;11739;54.750;9.124;2022-10-19T12:12:57;0.70;;;0.47;;
23140;SDS011;11739;54.750;9.124;2022-10-19T12:15:28;0.70;;;0.40;;
23140;SDS011;11739;54.750;9.124;2022-10-19T12:17:59;0.40;;;0.40;;
23140;SDS011;11739;54.750;9.124;2022-10-19T12:20:41;1.45;;;0.50;;
23140;SDS011;11739;54.750;9.124;2022-10-19T12:23:32;1.30;;;0.60;;
23140;SDS011;11739;54.750;9.124;2022-10-19T12:26:01;0.95;;;0.40;;
23140;SDS011;11739;54.750;9.124;2022-10-19T12:28:31;0.73;;;0.43;;
23140;SDS011;11739;54.750;9.124;2022-10-19T12:30:58;0.98;;;0.50;;
23140;SDS011;11739;54.750;9.124;2022-10-19T12:36:05;0.55;;;0.30;;
23140;SDS011;11739;54.750;9.124;2022-10-19T12:38:45;0.47;;;0.30;;
23140;SDS011;11739;54.750;9.124;2022-10-19T12:42:09;1.20;;;0.32;;
23140;SDS011;11739;54.750;9.124;2022-10-19T12:44:20;2.92;;;0.40;;
23140;SDS011;11739;54.750;9.124;2022-10-19T12:49:47;2.20;;;0.80;;
23140;SDS011;11739;54.750;9.124;2022-10-19T12:52:16;1.25;;;0.88;;
23140;SDS011;11739;54.750;9.124;2022-10-19T12:58:03;0.40;;;0.40;;
23140;SDS011;11739;54.750;9.124;2022-10-19T13:00:33;0.47;;;0.38;;
23140;SDS011;11739;54.750;9.124;2022-10-19T13:03:04;0.73;;;0.30;;
23140;SDS011;11739;54.750;9.124;2022-10-19T13:05:33;0.88;;;0.50;;
23140;SDS011;11739;54.750;9.124;2022-10-19T13:08:01;1.50;;;0.40;;
23140;SDS011;11739;54.750;9.124;2022-10-19T13:10:29;1.45;;;0.50;;
23140;SDS011;11739;54.750;9.124;2022-10-19T13:12:57;0.73;;;0.50;;
23140;SDS011;11739;54.750;9.124;2022-10-19T13:16:06;0.65;;;0.50;;
23140;SDS011;11739;54.750;9.124;2022-10-19T13:18:15;1.90;;;0.38;;
23140;SDS011;11739;54.750;9.124;2022-10-19T13:35:43;0.63;;;0.55;;
23140;SDS011;11739;54.750;9.124;2022-10-19T13:40:40;0.23;;;0.23;;
23140;SDS011;11739;54.750;9.124;2022-10-19T13:43:25;1.85;;;0.52;;
23140;SDS011;11739;54.750;9.124;2022-10-19T13:46:02;0.43;;;0.40;;
23140;SDS011;11739;54.750;9.124;2022-10-19T14:02:25;0.77;;;0.30;;
23140;SDS011;11739;54.750;9.124;2022-10-19T14:07:48;0.50;;;0.50;;
23140;SDS011;11739;54.750;9.124;2022-10-19T14:10:26;0.75;;;0.50;;
23140;SDS011;11739;54.750;9.124;2022-10-19T14:12:58;0.40;;;0.40;;
23140;SDS011;11739;54.750;9.124;2022-10-19T14:15:27;3.13;;;0.60;;
23140;SDS011;11739;54.750;9.124;2022-10-19T14:17:54;0.40;;;0.40;;
23140;SDS011;11739;54.750;9.124;2022-10-19T14:20:29;0.68;;;0.45;;
23140;SDS011;11739;54.750;9.124;2022-10-19T14:25:49;1.70;;;0.60;;
23140;SDS011;11739;54.750;9.124;2022-10-19T14:28:16;0.52;;;0.50;;
23140;SDS011;11739;54.750;9.124;2022-10-19T14:30:43;1.42;;;0.50;;
23140;SDS011;11739;54.750;9.124;2022-10-19T14:33:10;1.05;;;0.40;;
23140;SDS011;11739;54.750;9.124;2022-10-19T14:35:40;1.27;;;0.60;;
23140;SDS011;11739;54.750;9.124;2022-10-19T14:38:15;0.47;;;0.47;;
23140;SDS011;11739;54.750;9.124;2022-10-19T14:40:43;1.08;;;0.40;;
23140;SDS011;11739;54.750;9.124;2022-10-19T14:43:20;0.55;;;0.50;;
23140;SDS011;11739;54.750;9.124;2022-10-19T14:48:42;0.40;;;0.40;;
23140;SDS011;11739;54.750;9.124;2022-10-19T14:52:12;0.70;;;0.63;;
23140;SDS011;11739;54.750;9.124;2022-10-19T14:54:11;0.90;;;0.50;;
23140;SDS011;11739;54.750;9.124;2022-10-19T14:56:52;0.50;;;0.50;;
23140;SDS011;11739;54.750;9.124;2022-10-19T15:01:57;1.63;;;0.60;;
23140;SDS011;11739;54.750;9.124;2022-10-19T15:04:29;0.40;;;0.40;;
23140;SDS011;11739;54.750;9.124;2022-10-19T15:06:58;0.63;;;0.60;;
23140;SDS011;11739;54.750;9.124;2022-10-19T15:09:27;1.45;;;0.38;;
23140;SDS011;11739;54.750;9.124;2022-10-19T15:12:16;0.50;;;0.45;;
23140;SDS011;11739;54.750;9.124;2022-10-19T15:14:43;0.50;;;0.30;;
23140;SDS011;11739;54.750;9.124;2022-10-19T15:17:19;1.58;;;0.40;;
23140;SDS011;11739;54.750;9.124;2022-10-19T15:19:46;0.80;;;0.40;;
23140;SDS011;11739;54.750;9.124;2022-10-19T15:24:39;0.75;;;0.32;;
23140;SDS011;11739;54.750;9.124;2022-10-19T15:27:21;2.03;;;0.32;;
23140;SDS011;11739;54.750;9.124;2022-10-19T15:29:54;0.82;;;0.32;;
23140;SDS011;11739;54.750;9.124;2022-10-19T15:32:22;0.25;;;0.25;;
23140;SDS011;11739;54.750;9.124;2022-10-19T15:34:50;1.23;;;0.60;;
23140;SDS011;11739;54.750;9.124;2022-10-19T15:37:19;0.50;;;0.38;;
23140;SDS011;11739;54.750;9.124;2022-10-19T15:39:47;0.50;;;0.50;;
23140;SDS011;11739;54.750;9.124;2022-10-19T15:48:44;1.50;;;0.40;;
23140;SDS011;11739;54.750;9.124;2022-10-19T15:50:48;1.40;;;0.40;;
23140;SDS011;11739;54.750;9.124;2022-10-19T15:53:17;0.50;;;0.40;;
23140;SDS011;11739;54.750;9.124;2022-10-19T15:55:45;0.50;;;0.40;;
23140;SDS011;11739;54.750;9.124;2022-10-19T15:58:12;0.90;;;0.50;;
23140;SDS011;11739;54.750;9.124;2022-10-19T16:00:39;1.17;;;0.52;;
23140;SDS011;11739;54.750;9.124;2022-10-19T16:03:06;0.40;;;0.40;;
23140;SDS011;11739;54.750;9.124;2022-10-19T16:05:33;1.27;;;0.60;;
23140;SDS011;11739;54.750;9.124;2022-10-19T16:08:00;0.43;;;0.40;;
23140;SDS011;11739;54.750;9.124;2022-10-19T16:10:27;0.50;;;0.50;;
23140;SDS011;11739;54.750;9.124;2022-10-19T16:12:53;0.40;;;0.40;;
23140;SDS011;11739;54.750;9.124;2022-10-19T16:15:21;0.75;;;0.30;;
23140;SDS011;11739;54.750;9.124;2022-10-19T16:17:51;0.50;;;0.40;;
23140;SDS011;11739;54.750;9.124;2022-10-19T16:20:19;0.95;;;0.50;;
23140;SDS011;11739;54.750;9.124;2022-10-19T16:22:46;1.48;;;0.57;;
23140;SDS011;11739;54.750;9.124;2022-10-19T16:25:13;0.38;;;0.38;;
23140;SDS011;11739;54.750;9.124;2022-10-19T16:27:40;0.98;;;0.70;;
23140;SDS011;11739;54.750;9.124;2022-10-19T16:30:07;0.82;;;0.47;;
23140;SDS011;11739;54.750;9.124;2022-10-19T16:32:34;0.38;;;0.38;;
23140;SDS011;11739;54.750;9.124;2022-10-19T16:35:00;0.50;;;0.50;;
23140;SDS011;11739;54.750;9.124;2022-10-19T16:37:27;0.40;;;0.40;;
23140;SDS011;11739;54.750;9.124;2022-10-19T16:39:53;3.25;;;0.60;;
23140;SDS011;11739;54.750;9.124;2022-10-19T16:42:20;1.38;;;0.50;;
23140;SDS011;11739;54.750;9.124;2022-10-19T16:44:48;1.83;;;0.65;;
23140;SDS011;11739;54.750;9.124;2022-10-19T16:47:15;1.10;;;0.70;;
23140;SDS011;11739;54.750;9.124;2022-10-19T16:49:45;1.75;;;0.50;;
23140;SDS011;11739;54.750;9.124;2022-10-19T16:52:13;1.08;;;0.60;;
23140;SDS011;11739;54.750;9.124;2022-10-19T16:54:40;0.40;;;0.40;;
23140;SDS011;11739;54.750;9.124;2022-10-19T16:57:07;1.23;;;0.50;;
23140;SDS011;11739;54.750;9.124;2022-10-19T16:59:36;0.98;;;0.40;;
23140;SDS011;11739;54.750;9.124;2022-10-19T17:02:03;0.80;;;0.63;;
23140;SDS011;11739;54.750;9.124;2022-10-19T17:04:30;0.70;;;0.50;;
23140;SDS011;11739;54.750;9.124;2022-10-19T17:06:56;0.80;;;0.70;;
23140;SDS011;11739;54.750;9.124;2022-10-19T17:09:23;1.20;;;0.55;;
23140;SDS011;11739;54.750;9.124;2022-10-19T17:12:10;0.60;;;0.50;;
23140;SDS011;11739;54.750;9.124;2022-10-19T17:14:37;0.98;;;0.50;;
23140;SDS011;11739;54.750;9.124;2022-10-19T17:17:04;0.73;;;0.50;;
23140;SDS011;11739;54.750;9.124;2022-10-19T17:19:31;1.33;;;0.60;;
23140;SDS011;11739;54.750;9.124;2022-10-19T17:21:57;2.75;;;0.90;;
23140;SDS011;11739;54.750;9.124;2022-10-19T17:24:24;0.50;;;0.50;;
23140;SDS011;11739;54.750;9.124;2022-10-19T17:26:51;0.60;;;0.60;;